createdAt,value
2022-10-29T00:00:56.960Z,18.6
2022-10-29T00:16:06.569Z,18.4
2022-10-29T00:31:15.890Z,18.3
2022-10-29T00:46:25.535Z,18.4
2022-10-29T01:01:40.178Z,18.4
2022-10-29T01:16:50.711Z,19
2022-10-29T01:32:00.547Z,18.8
2022-10-29T01:47:10.316Z,19
2022-10-29T02:02:20.511Z,18.5
2022-10-29T02:18:37.363Z,18.2
2022-10-29T02:33:46.909Z,17.7
2022-10-29T02:48:55.774Z,17.5
2022-10-29T03:04:05.828Z,17.4
2022-10-29T03:19:15.196Z,17.3
2022-10-29T03:34:24.080Z,17.1
2022-10-29T03:49:37.223Z,16.9
2022-10-29T04:04:46.247Z,16.7
2022-10-29T04:19:55.886Z,16.5
2022-10-29T04:35:05.277Z,16.4
2022-10-29T04:50:14.406Z,16.3
2022-10-29T05:05:26.508Z,16.2
2022-10-29T05:20:37.542Z,16.1
2022-10-29T05:35:47.163Z,16.1
2022-10-29T05:50:56.753Z,16.1
2022-10-29T06:06:06.390Z,16
2022-10-29T06:21:15.848Z,16.1
2022-10-29T06:36:25.014Z,16.2
2022-10-29T06:51:38.154Z,16.3
2022-10-29T07:06:50.686Z,16.3
2022-10-29T07:22:00.828Z,16.3
2022-10-29T07:37:10.761Z,16.3
2022-10-29T07:52:20.540Z,16.4
2022-10-29T08:07:30.072Z,16.5
2022-10-29T08:22:39.392Z,16.7
2022-10-29T08:37:48.937Z,16.9
2022-10-29T08:53:22.095Z,17.2
2022-10-29T09:08:43.899Z,17.5
2022-10-29T09:23:53.228Z,17.7
2022-10-29T09:39:03.271Z,18
2022-10-29T09:54:13.127Z,18.3
2022-10-29T10:09:22.739Z,18.4
2022-10-29T10:24:32.117Z,18.6
2022-10-29T10:39:41.718Z,18.8
2022-10-29T10:54:51.431Z,19
2022-10-29T11:10:00.672Z,19.2
2022-10-29T11:25:10.328Z,19.3
2022-10-29T11:40:20.410Z,19.6
2022-10-29T11:55:30.315Z,20
2022-10-29T12:10:40.122Z,20.1
2022-10-29T12:25:50.016Z,20.7
2022-10-29T12:40:58.942Z,20.5
2022-10-29T12:56:09.178Z,21.3
2022-10-29T13:11:21.126Z,24.3
2022-10-29T13:26:31.042Z,24.3
2022-10-29T13:41:39.366Z,23.5
2022-10-29T13:56:48.149Z,22.5
2022-10-29T14:11:56.766Z,21.6
2022-10-29T14:27:06.134Z,21.2
2022-10-29T14:42:15.376Z,21
2022-10-29T14:57:24.924Z,20.8
2022-10-29T15:12:34.680Z,20.6
2022-10-29T15:27:43.802Z,20.3
2022-10-29T15:42:53.765Z,20
2022-10-29T15:58:05.255Z,19.8
2022-10-29T16:13:14.632Z,19.5
2022-10-29T16:28:23.960Z,19.2
2022-10-29T16:43:33.126Z,19
2022-10-29T16:58:42.895Z,18.9
2022-10-29T17:13:52.636Z,18.7
2022-10-29T17:29:01.900Z,18.6
2022-10-29T17:44:11.358Z,18.4
2022-10-29T17:59:20.535Z,18.3
2022-10-29T18:14:29.980Z,18.2
2022-10-29T18:29:39.221Z,18.1
2022-10-29T18:44:48.628Z,18
2022-10-29T18:59:57.284Z,17.8
2022-10-29T19:15:07.243Z,17.8
2022-10-29T19:30:16.630Z,17.7
2022-10-29T19:45:26.210Z,17.6
2022-10-29T20:00:37.921Z,17.5
2022-10-29T20:15:47.297Z,17.5
2022-10-29T20:30:56.485Z,17.4
2022-10-29T20:46:06.165Z,17.5
2022-10-29T21:01:15.882Z,17.6
2022-10-29T21:16:26.431Z,17.7
2022-10-29T21:31:36.130Z,17.8
2022-10-29T21:46:45.282Z,18.2
2022-10-29T22:01:55.295Z,18
2022-10-29T22:17:05.662Z,17.8
2022-10-29T22:32:14.970Z,18.1
2022-10-29T22:47:24.789Z,18.1
2022-10-29T23:02:34.098Z,17.8
2022-10-29T23:17:44.654Z,17.8
2022-10-29T23:32:54.261Z,17.8
2022-10-29T23:48:05.541Z,17.8
